地図

経路データ

SID SEASON NUMBER BASIN SUBBASIN NAME ISO_TIME NATURE LAT LON WMO_WIND WMO_PRES WMO_AGENCY TRACK_TYPE DIST2LAND LANDFALL IFLAG USA_AGENCY USA_ATCF_ID USA_LAT USA_LON USA_RECORD USA_STATUS USA_WIND USA_PRES USA_SSHS USA_R34_NE USA_R34_SE USA_R34_SW USA_R34_NW USA_R50_NE USA_R50_SE USA_R50_SW USA_R50_NW USA_R64_NE USA_R64_SE USA_R64_SW USA_R64_NW USA_POCI USA_ROCI USA_RMW USA_EYE TOKYO_LAT TOKYO_LON TOKYO_GRADE TOKYO_WIND TOKYO_PRES TOKYO_R50_DIR TOKYO_R50_LONG TOKYO_R50_SHORT TOKYO_R30_DIR TOKYO_R30_LONG TOKYO_R30_SHORT TOKYO_LAND CMA_LAT CMA_LON CMA_CAT CMA_WIND CMA_PRES HKO_LAT HKO_LON HKO_CAT HKO_WIND HKO_PRES NEWDELHI_LAT NEWDELHI_LON NEWDELHI_GRADE NEWDELHI_WIND NEWDELHI_PRES NEWDELHI_CI NEWDELHI_DP NEWDELHI_POCI REUNION_LAT REUNION_LON REUNION_TYPE REUNION_WIND REUNION_PRES REUNION_TNUM REUNION_CI REUNION_RMW REUNION_R34_NE REUNION_R34_SE REUNION_R34_SW REUNION_R34_NW REUNION_R50_NE REUNION_R50_SE REUNION_R50_SW REUNION_R50_NW REUNION_R64_NE REUNION_R64_SE REUNION_R64_SW REUNION_R64_NW BOM_LAT BOM_LON BOM_TYPE BOM_WIND BOM_PRES BOM_TNUM BOM_CI BOM_RMW BOM_R34_NE BOM_R34_SE BOM_R34_SW BOM_R34_NW BOM_R50_NE BOM_R50_SE BOM_R50_SW BOM_R50_NW BOM_R64_NE BOM_R64_SE BOM_R64_SW BOM_R64_NW BOM_ROCI BOM_POCI BOM_EYE BOM_POS_METHOD BOM_PRES_METHOD NADI_LAT NADI_LON NADI_CAT NADI_WIND NADI_PRES WELLINGTON_LAT WELLINGTON_LON WELLINGTON_WIND WELLINGTON_PRES DS824_LAT DS824_LON DS824_STAGE DS824_WIND DS824_PRES TD9636_LAT TD9636_LON TD9636_STAGE TD9636_WIND TD9636_PRES TD9635_LAT TD9635_LON TD9635_WIND TD9635_PRES TD9635_ROCI NEUMANN_LAT NEUMANN_LON NEUMANN_CLASS NEUMANN_WIND NEUMANN_PRES MLC_LAT MLC_LON MLC_CLASS MLC_WIND MLC_PRES USA_GUST BOM_GUST BOM_GUST_PER REUNION_GUST REUNION_GUST_PER USA_SEAHGT USA_SEARAD_NE USA_SEARAD_SE USA_SEARAD_SW USA_SEARAD_NW STORM_SPEED STORM_DIR
1922285N17276 1922 58 NA CS NOT_NAMED 1922-10-12 00:00:00 TS 16.5000 -84.5000 25 hurdat_atl main 70 70 O_____________ hurdat_atl AL051922 16.5000 -84.5000 TD 25 -1 3 88
1922285N17276 1922 58 NA CS NOT_NAMED 1922-10-12 03:00:00 TS 16.5050 -84.3375 main 78 78 P_____________ AL051922 16.5050 -84.3375 TD 25 -1 3 90
1922285N17276 1922 58 NA CS NOT_NAMED 1922-10-12 06:00:00 TS 16.5000 -84.2000 25 hurdat_atl main 79 79 O_____________ hurdat_atl AL051922 16.5000 -84.2000 TD 25 -1 2 95
1922285N17276 1922 58 NA CS NOT_NAMED 1922-10-12 09:00:00 TS 16.4850 -84.1000 main 81 81 P_____________ AL051922 16.4850 -84.1000 TD 25 -1 2 90
1922285N17276 1922 58 NA CS NOT_NAMED 1922-10-12 12:00:00 TS 16.5000 -84.0000 25 hurdat_atl main 84 84 O_____________ hurdat_atl AL051922 16.5000 -84.0000 TD 25 -1 3 68
1922285N17276 1922 58 NA CS NOT_NAMED 1922-10-12 15:00:00 TS 16.5775 -83.8575 main 99 99 P_____________ AL051922 16.5775 -83.8575 TD 25 -1 4 55
1922285N17276 1922 58 NA CS NOT_NAMED 1922-10-12 18:00:00 TS 16.7000 -83.7000 25 hurdat_atl main 119 119 O_____________ hurdat_atl AL051922 16.7000 -83.7000 TD 25 -1 4 49
1922285N17276 1922 58 NA CS NOT_NAMED 1922-10-12 21:00:00 TS 16.8350 -83.5500 main 140 140 P_____________ AL051922 16.8350 -83.5500 TD 27 -1 4 44
1922285N17276 1922 58 NA CS NOT_NAMED 1922-10-13 00:00:00 TS 17.0000 -83.4000 30 hurdat_atl main 165 165 O_____________ hurdat_atl AL051922 17.0000 -83.4000 TD 30 -1 5 41
1922285N17276 1922 58 NA CS NOT_NAMED 1922-10-13 03:00:00 TS 17.1775 -83.2350 main 195 195 P_____________ AL051922 17.1775 -83.2350 TD 30 -1 5 35
1922285N17276 1922 58 NA CS NOT_NAMED 1922-10-13 06:00:00 TS 17.4000 -83.1000 30 hurdat_atl main 220 220 O_____________ hurdat_atl AL051922 17.4000 -83.1000 TD 30 -1 5 23
1922285N17276 1922 58 NA CS NOT_NAMED 1922-10-13 09:00:00 TS 17.6550 -83.0275 main 253 253 P_____________ AL051922 17.6550 -83.0275 TD 32 -1 6 9
1922285N17276 1922 58 NA CS NOT_NAMED 1922-10-13 12:00:00 TS 18.0000 -83.0000 35 hurdat_atl main 282 282 O_____________ hurdat_atl AL051922 18.0000 -83.0000 TS 35 0 8 3
1922285N17276 1922 58 NA CS NOT_NAMED 1922-10-13 15:00:00 TS 18.4550 -82.9925 main 325 269 P_____________ AL051922 18.4550 -82.9925 TS 35 0 10 1
1922285N17276 1922 58 NA CS NOT_NAMED 1922-10-13 18:00:00 TS 19.0000 -83.0000 35 hurdat_atl main 269 213 O_____________ hurdat_atl AL051922 19.0000 -83.0000 TS 35 0 11 359
1922285N17276 1922 58 NA CS NOT_NAMED 1922-10-13 21:00:00 TS 19.5775 -83.0000 main 202 135 P_____________ AL051922 19.5775 -83.0000 TS 35 0 12 1
1922285N17276 1922 58 NA CS NOT_NAMED 1922-10-14 00:00:00 TS 20.2000 -83.0000 35 hurdat_atl main 135 70 O_____________ hurdat_atl AL051922 20.2000 -83.0000 TS 35 0 13 0
1922285N17276 1922 58 NA CS NOT_NAMED 1922-10-14 03:00:00 TS 20.8425 -83.0000 main 70 0 P_____________ AL051922 20.8425 -83.0000 TS 35 0 13 1
1922285N17276 1922 58 NA CS NOT_NAMED 1922-10-14 06:00:00 TS 21.5000 -83.0000 35 hurdat_atl main 0 0 O_____________ hurdat_atl AL051922 21.5000 -83.0000 TS 35 0 13 1
1922285N17276 1922 58 NA CS NOT_NAMED 1922-10-14 09:00:00 TS 22.1425 -82.9705 main 33 0 P_____________ AL051922 22.1425 -82.9705 TS 35 0 13 1
1922285N17276 1922 58 NA NA NOT_NAMED 1922-10-14 12:00:00 TS 22.8000 -83.0000 35 hurdat_atl main 0 0 O_____________ hurdat_atl AL051922 22.8000 -83.0000 TS 35 0 14 353
1922285N17276 1922 58 NA GM NOT_NAMED 1922-10-14 15:00:00 TS 23.5150 -83.1548 main 67 67 P_____________ AL051922 23.5150 -83.1548 TS 37 0 15 345
1922285N17276 1922 58 NA GM NOT_NAMED 1922-10-14 18:00:00 TS 24.2000 -83.4000 40 hurdat_atl main 145 145 O_____________ hurdat_atl AL051922 24.2000 -83.4000 TS 40 0 14 340
1922285N17276 1922 58 NA GM NOT_NAMED 1922-10-14 21:00:00 TS 24.7950 -83.6776 main 214 214 P_____________ AL051922 24.7950 -83.6776 TS 42 0 12 334
1922285N17276 1922 58 NA GM NOT_NAMED 1922-10-15 00:00:00 TS 25.3000 -84.0000 45 hurdat_atl main 237 230 O_____________ hurdat_atl AL051922 25.3000 -84.0000 TS 45 0 11 327
1922285N17276 1922 58 NA GM NOT_NAMED 1922-10-15 03:00:00 TS 25.7450 -84.3501 main 242 231 P_____________ AL051922 25.7450 -84.3501 TS 45 0 10 322
1922285N17276 1922 58 NA GM NOT_NAMED 1922-10-15 06:00:00 TS 26.1000 -84.7000 45 hurdat_atl main 247 247 O_____________ hurdat_atl AL051922 26.1000 -84.7000 TS 45 0 9 317
1922285N17276 1922 58 NA GM NOT_NAMED 1922-10-15 09:00:00 TS 26.3799 -85.0153 main 258 258 P_____________ AL051922 26.3799 -85.0153 TS 45 0 7 313
1922285N17276 1922 58 NA GM NOT_NAMED 1922-10-15 12:00:00 TS 26.6000 -85.3000 45 hurdat_atl main 277 277 O_____________ hurdat_atl AL051922 26.6000 -85.3000 TS 45 0 7 312
1922285N17276 1922 58 NA GM NOT_NAMED 1922-10-15 15:00:00 TS 26.8149 -85.5576 main 293 288 P_____________ AL051922 26.8149 -85.5576 TS 45 0 6 312
1922285N17276 1922 58 NA GM NOT_NAMED 1922-10-15 18:00:00 TS 27.0000 -85.8000 45 hurdat_atl main 303 294 O_____________ hurdat_atl AL051922 27.0000 -85.8000 TS 45 0 6 308
1922285N17276 1922 58 NA GM NOT_NAMED 1922-10-15 21:00:00 TS 27.1575 -86.0501 main 287 279 P_____________ AL051922 27.1575 -86.0501 TS 45 0 5 304
1922285N17276 1922 58 NA GM NOT_NAMED 1922-10-16 00:00:00 TS 27.3000 -86.3000 45 hurdat_atl main 281 274 O_____________ hurdat_atl AL051922 27.3000 -86.3000 TS 45 0 5 302
1922285N17276 1922 58 NA GM NOT_NAMED 1922-10-16 03:00:00 TS 27.4425 -86.5576 main 282 266 P_____________ AL051922 27.4425 -86.5576 TS 42 0 5 304
1922285N17276 1922 58 NA GM NOT_NAMED 1922-10-16 06:00:00 TS 27.6000 -86.8000 40 hurdat_atl main 271 243 O_____________ hurdat_atl AL051922 27.6000 -86.8000 TS 40 0 5 310
1922285N17276 1922 58 NA GM NOT_NAMED 1922-10-16 09:00:00 TS 27.7775 -87.0151 main 243 214 P_____________ AL051922 27.7775 -87.0151 TS 37 0 5 319
1922285N17276 1922 58 NA GM NOT_NAMED 1922-10-16 12:00:00 TS 28.0000 -87.2000 35 hurdat_atl main 214 179 O_____________ hurdat_atl AL051922 28.0000 -87.2000 TS 35 0 6 328
1922285N17276 1922 58 NA GM NOT_NAMED 1922-10-16 15:00:00 TS 28.2775 -87.3650 main 179 156 P_____________ AL051922 28.2775 -87.3650 TS 32 -1 7 336
1922285N17276 1922 58 NA GM NOT_NAMED 1922-10-16 18:00:00 TS 28.6000 -87.5000 30 hurdat_atl main 156 137 O_____________ hurdat_atl AL051922 28.6000 -87.5000 TD 30 -1 7 342
1922285N17276 1922 58 NA GM NOT_NAMED 1922-10-16 21:00:00 TS 28.9425 -87.6150 main 137 104 P_____________ AL051922 28.9425 -87.6150 TD 30 -1 7 346
1922285N17276 1922 58 NA GM NOT_NAMED 1922-10-17 00:00:00 TS 29.3000 -87.7000 30 hurdat_atl main 104 69 O_____________ hurdat_atl AL051922 29.3000 -87.7000 TD 30 -1 7 350
1922285N17276 1922 58 NA GM NOT_NAMED 1922-10-17 03:00:00 TS 29.6425 -87.7576 main 69 29 P_____________ AL051922 29.6425 -87.7576 TD 27 -1 7 353
1922285N17276 1922 58 NA GM NOT_NAMED 1922-10-17 06:00:00 TS 30.0000 -87.8000 25 hurdat_atl main 29 0 O_____________ hurdat_atl AL051922 30.0000 -87.8000 TD 25 -1 8 354
1922285N17276 1922 58 NA GM NOT_NAMED 1922-10-17 09:00:00 TS 30.3925 -87.8500 main 0 0 P_____________ AL051922 30.3925 -87.8500 TD 25 -1 8 354
1922285N17276 1922 58 NA NA NOT_NAMED 1922-10-17 12:00:00 ET 30.8000 -87.9000 25 hurdat_atl main 0 0 O_____________ hurdat_atl AL051922 30.8000 -87.9000 EX 25 -4 8 354
1922285N17276 1922 58 NA NA NOT_NAMED 1922-10-17 15:00:00 ET 31.2025 -87.9499 main 0 0 P_____________ AL051922 31.2025 -87.9499 EX 25 -4 8 354
1922285N17276 1922 58 NA NA NOT_NAMED 1922-10-17 18:00:00 ET 31.6000 -88.0000 25 hurdat_atl main 0 O_____________ hurdat_atl AL051922 31.6000 -88.0000 EX 25 -4 8 354

IBTrACS Databaseについて

本データベースは、米国NOAAが公開する1842年以降の世界の熱帯低気圧のベストトラックデータアーカイブInternational Best Track Archive for Climate Stewardship (IBTrACS)を、ウェブで閲覧しやすい形式に変換したものです。

最終更新日:2021-10-27